sensor_id;sensor_type;location;lat;lon;timestamp;temperature;humidity
59148;DHT22;44930;52.878;6.168;2022-09-09T00:04:22;14.60;99.90
59148;DHT22;44930;52.878;6.168;2022-09-09T00:07:05;14.80;99.90
59148;DHT22;44930;52.878;6.168;2022-09-09T00:09:39;14.90;99.90
59148;DHT22;44930;52.878;6.168;2022-09-09T00:12:15;14.40;99.90
59148;DHT22;44930;52.878;6.168;2022-09-09T00:14:55;14.90;99.90
59148;DHT22;44930;52.878;6.168;2022-09-09T00:17:42;15.10;99.90
59148;DHT22;44930;52.878;6.168;2022-09-09T00:23:08;14.60;99.90
59148;DHT22;44930;52.878;6.168;2022-09-09T00:25:53;14.80;99.90
59148;DHT22;44930;52.878;6.168;2022-09-09T00:28:23;14.60;99.90
59148;DHT22;44930;52.878;6.168;2022-09-09T00:30:49;14.70;99.90
59148;DHT22;44930;52.878;6.168;2022-09-09T00:33:19;14.30;99.90
59148;DHT22;44930;52.878;6.168;2022-09-09T00:35:59;14.70;99.90
59148;DHT22;44930;52.878;6.168;2022-09-09T00:38:38;14.70;99.90
59148;DHT22;44930;52.878;6.168;2022-09-09T00:41:48;14.40;99.90
59148;DHT22;44930;52.878;6.168;2022-09-09T00:44:33;14.80;99.90
59148;DHT22;44930;52.878;6.168;2022-09-09T00:47:38;14.40;99.90
59148;DHT22;44930;52.878;6.168;2022-09-09T00:50:42;14.10;99.90
59148;DHT22;44930;52.878;6.168;2022-09-09T00:53:39;14.90;99.90
59148;DHT22;44930;52.878;6.168;2022-09-09T00:56:16;14.40;99.90
59148;DHT22;44930;52.878;6.168;2022-09-09T00:58:57;14.40;99.90
59148;DHT22;44930;52.878;6.168;2022-09-09T01:01:24;14.50;99.90
59148;DHT22;44930;52.878;6.168;2022-09-09T01:03:53;14.40;99.90
59148;DHT22;44930;52.878;6.168;2022-09-09T01:06:35;14.40;99.90
59148;DHT22;44930;52.878;6.168;2022-09-09T01:09:27;14.50;99.90
59148;DHT22;44930;52.878;6.168;2022-09-09T01:12:15;14.70;99.90
59148;DHT22;44930;52.878;6.168;2022-09-09T01:14:56;14.40;99.90
59148;DHT22;44930;52.878;6.168;2022-09-09T01:17:56;14.80;99.90
59148;DHT22;44930;52.878;6.168;2022-09-09T01:20:27;14.60;99.90
59148;DHT22;44930;52.878;6.168;2022-09-09T01:28:36;14.70;99.90
59148;DHT22;44930;52.878;6.168;2022-09-09T01:31:04;14.40;99.90
59148;DHT22;44930;52.878;6.168;2022-09-09T01:33:31;14.50;99.90
59148;DHT22;44930;52.878;6.168;2022-09-09T01:36:10;15.00;99.90
59148;DHT22;44930;52.878;6.168;2022-09-09T01:38:37;14.60;99.90
59148;DHT22;44930;52.878;6.168;2022-09-09T01:41:04;15.00;99.90
59148;DHT22;44930;52.878;6.168;2022-09-09T01:43:30;14.50;99.90
59148;DHT22;44930;52.878;6.168;2022-09-09T01:45:58;14.50;99.90
59148;DHT22;44930;52.878;6.168;2022-09-09T01:48:25;14.80;99.90
59148;DHT22;44930;52.878;6.168;2022-09-09T01:50:51;14.40;99.90
59148;DHT22;44930;52.878;6.168;2022-09-09T01:53:18;15.20;99.90
59148;DHT22;44930;52.878;6.168;2022-09-09T02:00:56;14.40;99.90
59148;DHT22;44930;52.878;6.168;2022-09-09T02:03:27;14.60;99.90
59148;DHT22;44930;52.878;6.168;2022-09-09T02:06:00;14.50;99.90
59148;DHT22;44930;52.878;6.168;2022-09-09T02:08:40;15.00;99.90
59148;DHT22;44930;52.878;6.168;2022-09-09T02:11:13;15.10;99.90
59148;DHT22;44930;52.878;6.168;2022-09-09T02:13:39;15.90;99.90
59148;DHT22;44930;52.878;6.168;2022-09-09T02:18:47;14.80;99.90
59148;DHT22;44930;52.878;6.168;2022-09-09T02:21:15;15.20;99.90
59148;DHT22;44930;52.878;6.168;2022-09-09T02:23:43;14.90;99.90
59148;DHT22;44930;52.878;6.168;2022-09-09T02:26:12;14.70;99.90
59148;DHT22;44930;52.878;6.168;2022-09-09T02:28:40;15.00;99.90
59148;DHT22;44930;52.878;6.168;2022-09-09T02:31:07;14.40;99.90
59148;DHT22;44930;52.878;6.168;2022-09-09T02:33:41;15.00;99.90
59148;DHT22;44930;52.878;6.168;2022-09-09T02:36:09;14.90;99.90
59148;DHT22;44930;52.878;6.168;2022-09-09T02:38:42;14.40;99.90
59148;DHT22;44930;52.878;6.168;2022-09-09T02:41:28;14.80;99.90
59148;DHT22;44930;52.878;6.168;2022-09-09T02:43:55;14.80;99.90
59148;DHT22;44930;52.878;6.168;2022-09-09T02:49:17;14.50;99.90
59148;DHT22;44930;52.878;6.168;2022-09-09T02:52:13;15.00;99.90
59148;DHT22;44930;52.878;6.168;2022-09-09T02:54:42;14.60;99.90
59148;DHT22;44930;52.878;6.168;2022-09-09T02:57:25;14.70;99.90
59148;DHT22;44930;52.878;6.168;2022-09-09T02:59:51;14.90;99.90
59148;DHT22;44930;52.878;6.168;2022-09-09T03:02:17;15.40;99.90
59148;DHT22;44930;52.878;6.168;2022-09-09T03:04:44;14.70;99.90
59148;DHT22;44930;52.878;6.168;2022-09-09T03:07:11;14.90;99.90
59148;DHT22;44930;52.878;6.168;2022-09-09T03:09:37;14.80;99.90
59148;DHT22;44930;52.878;6.168;2022-09-09T03:12:03;15.00;99.90
59148;DHT22;44930;52.878;6.168;2022-09-09T03:14:32;14.50;99.90
59148;DHT22;44930;52.878;6.168;2022-09-09T03:16:58;15.00;99.90
59148;DHT22;44930;52.878;6.168;2022-09-09T03:19:26;14.40;99.90
59148;DHT22;44930;52.878;6.168;2022-09-09T03:21:53;14.90;99.90
59148;DHT22;44930;52.878;6.168;2022-09-09T03:24:19;14.90;99.90
59148;DHT22;44930;52.878;6.168;2022-09-09T03:26:45;14.60;99.90
59148;DHT22;44930;52.878;6.168;2022-09-09T03:29:11;15.10;99.90
59148;DHT22;44930;52.878;6.168;2022-09-09T03:31:40;14.90;99.90
59148;DHT22;44930;52.878;6.168;2022-09-09T03:34:06;14.90;99.90
59148;DHT22;44930;52.878;6.168;2022-09-09T03:36:32;14.50;99.90
59148;DHT22;44930;52.878;6.168;2022-09-09T03:38:58;14.90;99.90
59148;DHT22;44930;52.878;6.168;2022-09-09T03:41:24;14.50;99.90
59148;DHT22;44930;52.878;6.168;2022-09-09T03:43:53;14.80;99.90
59148;DHT22;44930;52.878;6.168;2022-09-09T03:46:21;15.00;99.90
59148;DHT22;44930;52.878;6.168;2022-09-09T03:48:47;14.20;99.90
59148;DHT22;44930;52.878;6.168;2022-09-09T03:51:13;14.50;99.90
59148;DHT22;44930;52.878;6.168;2022-09-09T03:53:38;14.20;99.90
59148;DHT22;44930;52.878;6.168;2022-09-09T03:56:05;14.80;99.90
59148;DHT22;44930;52.878;6.168;2022-09-09T03:58:33;15.20;99.90
59148;DHT22;44930;52.878;6.168;2022-09-09T04:01:04;14.80;99.90
59148;DHT22;44930;52.878;6.168;2022-09-09T04:03:31;14.30;99.90
59148;DHT22;44930;52.878;6.168;2022-09-09T04:05:59;14.80;99.90
59148;DHT22;44930;52.878;6.168;2022-09-09T04:08:25;15.00;99.90
59148;DHT22;44930;52.878;6.168;2022-09-09T04:10:51;14.80;99.90
59148;DHT22;44930;52.878;6.168;2022-09-09T04:13:18;14.80;99.90
59148;DHT22;44930;52.878;6.168;2022-09-09T04:15:53;14.70;99.90
59148;DHT22;44930;52.878;6.168;2022-09-09T04:18:20;14.90;99.90
59148;DHT22;44930;52.878;6.168;2022-09-09T04:20:49;14.70;99.90
59148;DHT22;44930;52.878;6.168;2022-09-09T04:23:16;14.80;99.90
59148;DHT22;44930;52.878;6.168;2022-09-09T04:25:46;14.20;99.90
59148;DHT22;44930;52.878;6.168;2022-09-09T04:28:13;14.30;99.90
59148;DHT22;44930;52.878;6.168;2022-09-09T04:30:39;14.30;99.90
59148;DHT22;44930;52.878;6.168;2022-09-09T04:33:06;14.50;99.90
59148;DHT22;44930;52.878;6.168;2022-09-09T04:35:32;15.20;99.90
59148;DHT22;44930;52.878;6.168;2022-09-09T04:37:58;14.40;99.90
59148;DHT22;44930;52.878;6.168;2022-09-09T04:40:24;15.00;99.90
59148;DHT22;44930;52.878;6.168;2022-09-09T04:42:50;14.90;99.90
59148;DHT22;44930;52.878;6.168;2022-09-09T04:45:16;14.50;99.90
59148;DHT22;44930;52.878;6.168;2022-09-09T04:47:42;14.60;99.90
59148;DHT22;44930;52.878;6.168;2022-09-09T04:50:08;14.50;99.90
59148;DHT22;44930;52.878;6.168;2022-09-09T04:52:35;15.00;99.90
59148;DHT22;44930;52.878;6.168;2022-09-09T04:55:01;14.50;99.90
59148;DHT22;44930;52.878;6.168;2022-09-09T04:57:26;14.30;99.90
59148;DHT22;44930;52.878;6.168;2022-09-09T04:59:52;14.70;99.90
59148;DHT22;44930;52.878;6.168;2022-09-09T05:02:18;14.70;99.90
59148;DHT22;44930;52.878;6.168;2022-09-09T05:04:43;14.70;99.90
59148;DHT22;44930;52.878;6.168;2022-09-09T05:07:09;14.60;99.90
59148;DHT22;44930;52.878;6.168;2022-09-09T05:09:35;14.60;99.90
59148;DHT22;44930;52.878;6.168;2022-09-09T05:12:01;14.00;99.90
59148;DHT22;44930;52.878;6.168;2022-09-09T05:14:28;14.50;99.90
59148;DHT22;44930;52.878;6.168;2022-09-09T05:16:54;14.20;99.90
59148;DHT22;44930;52.878;6.168;2022-09-09T05:19:21;14.40;99.90
59148;DHT22;44930;52.878;6.168;2022-09-09T05:21:47;14.80;99.90
59148;DHT22;44930;52.878;6.168;2022-09-09T05:24:13;14.50;99.90
59148;DHT22;44930;52.878;6.168;2022-09-09T05:26:38;14.60;99.90
59148;DHT22;44930;52.878;6.168;2022-09-09T05:29:04;14.50;99.90
59148;DHT22;44930;52.878;6.168;2022-09-09T05:31:30;14.20;99.90
59148;DHT22;44930;52.878;6.168;2022-09-09T05:33:56;14.50;99.90
59148;DHT22;44930;52.878;6.168;2022-09-09T05:36:22;14.50;99.90
59148;DHT22;44930;52.878;6.168;2022-09-09T05:38:49;14.60;99.90
59148;DHT22;44930;52.878;6.168;2022-09-09T05:41:16;14.50;99.90
59148;DHT22;44930;52.878;6.168;2022-09-09T05:43:43;14.30;99.90
59148;DHT22;44930;52.878;6.168;2022-09-09T05:46:14;14.80;99.90
59148;DHT22;44930;52.878;6.168;2022-09-09T05:48:45;14.60;99.90
59148;DHT22;44930;52.878;6.168;2022-09-09T05:51:19;14.40;99.90
59148;DHT22;44930;52.878;6.168;2022-09-09T05:53:47;14.40;99.90
59148;DHT22;44930;52.878;6.168;2022-09-09T05:56:15;14.10;99.90
59148;DHT22;44930;52.878;6.168;2022-09-09T05:58:41;14.40;99.90
59148;DHT22;44930;52.878;6.168;2022-09-09T06:01:20;14.60;99.90
59148;DHT22;44930;52.878;6.168;2022-09-09T06:03:47;14.40;99.90
59148;DHT22;44930;52.878;6.168;2022-09-09T06:06:16;14.40;99.90
59148;DHT22;44930;52.878;6.168;2022-09-09T06:08:44;14.60;99.90
59148;DHT22;44930;52.878;6.168;2022-09-09T06:11:11;14.70;99.90
59148;DHT22;44930;52.878;6.168;2022-09-09T06:13:38;14.10;99.90
59148;DHT22;44930;52.878;6.168;2022-09-09T06:16:05;14.60;99.90
59148;DHT22;44930;52.878;6.168;2022-09-09T06:18:32;14.30;99.90
59148;DHT22;44930;52.878;6.168;2022-09-09T06:21:00;14.70;99.90
59148;DHT22;44930;52.878;6.168;2022-09-09T06:23:27;14.40;99.90
59148;DHT22;44930;52.878;6.168;2022-09-09T06:26:04;14.30;99.90
59148;DHT22;44930;52.878;6.168;2022-09-09T06:28:31;14.20;99.90
59148;DHT22;44930;52.878;6.168;2022-09-09T06:31:01;14.00;99.90
59148;DHT22;44930;52.878;6.168;2022-09-09T06:33:31;14.40;99.90
59148;DHT22;44930;52.878;6.168;2022-09-09T06:35:57;14.40;99.90
59148;DHT22;44930;52.878;6.168;2022-09-09T06:38:23;14.60;99.90
59148;DHT22;44930;52.878;6.168;2022-09-09T06:40:57;14.40;99.90
59148;DHT22;44930;52.878;6.168;2022-09-09T06:43:24;14.10;99.90
59148;DHT22;44930;52.878;6.168;2022-09-09T06:48:23;14.40;99.90
59148;DHT22;44930;52.878;6.168;2022-09-09T06:51:01;14.40;99.90
59148;DHT22;44930;52.878;6.168;2022-09-09T06:53:27;14.20;99.90
59148;DHT22;44930;52.878;6.168;2022-09-09T06:55:53;14.60;99.90
59148;DHT22;44930;52.878;6.168;2022-09-09T06:58:20;15.00;99.90
59148;DHT22;44930;52.878;6.168;2022-09-09T07:00:47;14.60;99.90
59148;DHT22;44930;52.878;6.168;2022-09-09T07:03:13;14.80;99.90
59148;DHT22;44930;52.878;6.168;2022-09-09T07:05:39;14.50;99.90
59148;DHT22;44930;52.878;6.168;2022-09-09T07:08:04;14.60;99.90
59148;DHT22;44930;52.878;6.168;2022-09-09T07:10:31;14.50;99.90
59148;DHT22;44930;52.878;6.168;2022-09-09T07:12:56;14.40;99.90
59148;DHT22;44930;52.878;6.168;2022-09-09T07:15:22;14.60;99.90
59148;DHT22;44930;52.878;6.168;2022-09-09T07:17:48;14.70;99.90
59148;DHT22;44930;52.878;6.168;2022-09-09T07:20:14;14.90;99.90
59148;DHT22;44930;52.878;6.168;2022-09-09T07:22:41;14.80;99.90
59148;DHT22;44930;52.878;6.168;2022-09-09T07:25:07;15.00;99.90
59148;DHT22;44930;52.878;6.168;2022-09-09T07:27:33;14.60;99.90
59148;DHT22;44930;52.878;6.168;2022-09-09T07:29:59;15.40;99.90
59148;DHT22;44930;52.878;6.168;2022-09-09T07:32:24;14.80;99.90
59148;DHT22;44930;52.878;6.168;2022-09-09T07:34:53;14.80;99.90
59148;DHT22;44930;52.878;6.168;2022-09-09T07:37:18;15.30;99.90
59148;DHT22;44930;52.878;6.168;2022-09-09T07:39:44;14.80;99.90
59148;DHT22;44930;52.878;6.168;2022-09-09T07:42:10;15.10;99.90
59148;DHT22;44930;52.878;6.168;2022-09-09T07:44:38;14.90;99.90
59148;DHT22;44930;52.878;6.168;2022-09-09T07:47:05;15.70;99.90
59148;DHT22;44930;52.878;6.168;2022-09-09T07:49:32;15.30;99.90
59148;DHT22;44930;52.878;6.168;2022-09-09T07:51:58;15.60;99.90
59148;DHT22;44930;52.878;6.168;2022-09-09T07:54:24;15.70;99.90
59148;DHT22;44930;52.878;6.168;2022-09-09T07:56:50;15.50;99.90
59148;DHT22;44930;52.878;6.168;2022-09-09T07:59:16;15.90;99.90
59148;DHT22;44930;52.878;6.168;2022-09-09T08:01:47;16.20;99.90
59148;DHT22;44930;52.878;6.168;2022-09-09T08:04:15;16.20;99.90
59148;DHT22;44930;52.878;6.168;2022-09-09T08:06:44;16.10;99.90
59148;DHT22;44930;52.878;6.168;2022-09-09T08:09:12;16.40;99.90
59148;DHT22;44930;52.878;6.168;2022-09-09T08:11:39;16.20;99.90
59148;DHT22;44930;52.878;6.168;2022-09-09T08:14:06;16.10;99.90
59148;DHT22;44930;52.878;6.168;2022-09-09T08:16:40;16.10;99.90
59148;DHT22;44930;52.878;6.168;2022-09-09T08:19:08;16.70;99.90
59148;DHT22;44930;52.878;6.168;2022-09-09T08:21:36;16.40;99.90
59148;DHT22;44930;52.878;6.168;2022-09-09T08:24:02;16.60;99.90
59148;DHT22;44930;52.878;6.168;2022-09-09T08:26:30;16.70;99.90
59148;DHT22;44930;52.878;6.168;2022-09-09T08:28:58;16.60;99.90
59148;DHT22;44930;52.878;6.168;2022-09-09T08:31:26;16.70;99.90
59148;DHT22;44930;52.878;6.168;2022-09-09T08:33:54;16.50;99.90
59148;DHT22;44930;52.878;6.168;2022-09-09T08:36:22;16.60;99.90
59148;DHT22;44930;52.878;6.168;2022-09-09T08:38:49;16.80;99.90
59148;DHT22;44930;52.878;6.168;2022-09-09T08:44:31;16.80;99.90
59148;DHT22;44930;52.878;6.168;2022-09-09T08:47:04;16.90;99.90
59148;DHT22;44930;52.878;6.168;2022-09-09T08:50:00;16.80;99.90
59148;DHT22;44930;52.878;6.168;2022-09-09T08:52:45;16.50;99.90
59148;DHT22;44930;52.878;6.168;2022-09-09T08:58:22;16.90;99.90
59148;DHT22;44930;52.878;6.168;2022-09-09T09:11:48;17.50;99.90
59148;DHT22;44930;52.878;6.168;2022-09-09T09:14:23;16.80;99.90
59148;DHT22;44930;52.878;6.168;2022-09-09T09:19:28;17.40;99.90
59148;DHT22;44930;52.878;6.168;2022-09-09T09:22:03;17.40;99.90
59148;DHT22;44930;52.878;6.168;2022-09-09T09:27:15;17.40;99.90
59148;DHT22;44930;52.878;6.168;2022-09-09T09:29:42;17.30;99.90
59148;DHT22;44930;52.878;6.168;2022-09-09T09:32:16;18.70;99.90
59148;DHT22;44930;52.878;6.168;2022-09-09T09:34:49;17.20;99.90
59148;DHT22;44930;52.878;6.168;2022-09-09T09:37:28;17.50;99.90
59148;DHT22;44930;52.878;6.168;2022-09-09T09:39:54;17.30;99.90
59148;DHT22;44930;52.878;6.168;2022-09-09T09:42:20;17.80;99.90
59148;DHT22;44930;52.878;6.168;2022-09-09T09:44:46;17.70;99.90
59148;DHT22;44930;52.878;6.168;2022-09-09T09:47:20;17.40;99.90
59148;DHT22;44930;52.878;6.168;2022-09-09T09:49:55;17.90;99.90
59148;DHT22;44930;52.878;6.168;2022-09-09T09:52:23;17.60;99.90
59148;DHT22;44930;52.878;6.168;2022-09-09T09:54:50;18.00;99.90
59148;DHT22;44930;52.878;6.168;2022-09-09T09:57:18;18.10;99.90
59148;DHT22;44930;52.878;6.168;2022-09-09T09:59:45;18.00;99.90
59148;DHT22;44930;52.878;6.168;2022-09-09T10:02:22;18.10;99.90
59148;DHT22;44930;52.878;6.168;2022-09-09T10:05:15;18.10;99.90
59148;DHT22;44930;52.878;6.168;2022-09-09T10:07:41;18.10;99.90
59148;DHT22;44930;52.878;6.168;2022-09-09T10:10:22;18.10;99.90
59148;DHT22;44930;52.878;6.168;2022-09-09T10:13:15;18.00;99.90
59148;DHT22;44930;52.878;6.168;2022-09-09T10:16:12;17.90;99.90
59148;DHT22;44930;52.878;6.168;2022-09-09T10:18:57;18.40;99.90
59148;DHT22;44930;52.878;6.168;2022-09-09T10:21:56;17.80;99.90
59148;DHT22;44930;52.878;6.168;2022-09-09T10:24:30;17.80;99.90
59148;DHT22;44930;52.878;6.168;2022-09-09T10:27:37;18.40;99.90
59148;DHT22;44930;52.878;6.168;2022-09-09T10:30:19;17.80;99.90
59148;DHT22;44930;52.878;6.168;2022-09-09T10:32:48;18.40;99.90
59148;DHT22;44930;52.878;6.168;2022-09-09T10:38:17;18.20;99.90
59148;DHT22;44930;52.878;6.168;2022-09-09T10:41:19;18.70;99.90
59148;DHT22;44930;52.878;6.168;2022-09-09T10:49:28;18.40;99.90
59148;DHT22;44930;52.878;6.168;2022-09-09T10:54:33;17.90;99.90
59148;DHT22;44930;52.878;6.168;2022-09-09T10:59:52;18.00;99.90
59148;DHT22;44930;52.878;6.168;2022-09-09T11:02:30;17.50;99.90
59148;DHT22;44930;52.878;6.168;2022-09-09T11:07:44;17.60;99.90
59148;DHT22;44930;52.878;6.168;2022-09-09T11:10:55;18.40;99.90
59148;DHT22;44930;52.878;6.168;2022-09-09T11:13:44;18.00;99.90
59148;DHT22;44930;52.878;6.168;2022-09-09T11:19:16;18.00;99.90
59148;DHT22;44930;52.878;6.168;2022-09-09T11:21:49;18.00;99.90
59148;DHT22;44930;52.878;6.168;2022-09-09T11:24:40;17.80;99.90
59148;DHT22;44930;52.878;6.168;2022-09-09T11:35:33;17.70;99.90
59148;DHT22;44930;52.878;6.168;2022-09-09T11:38:18;17.90;99.90
59148;DHT22;44930;52.878;6.168;2022-09-09T11:40:45;18.10;99.90
59148;DHT22;44930;52.878;6.168;2022-09-09T11:43:18;19.30;99.90
59148;DHT22;44930;52.878;6.168;2022-09-09T11:45:52;18.50;99.90
59148;DHT22;44930;52.878;6.168;2022-09-09T11:48:32;19.10;99.90
59148;DHT22;44930;52.878;6.168;2022-09-09T11:51:02;19.50;99.90
59148;DHT22;44930;52.878;6.168;2022-09-09T11:53:28;19.10;99.90
59148;DHT22;44930;52.878;6.168;2022-09-09T11:56:08;19.20;99.90
59148;DHT22;44930;52.878;6.168;2022-09-09T11:58:43;19.20;99.90
59148;DHT22;44930;52.878;6.168;2022-09-09T12:01:15;19.20;99.90
59148;DHT22;44930;52.878;6.168;2022-09-09T12:03:49;19.20;99.90
59148;DHT22;44930;52.878;6.168;2022-09-09T12:06:26;20.40;99.90
59148;DHT22;44930;52.878;6.168;2022-09-09T12:09:04;19.30;99.90
59148;DHT22;44930;52.878;6.168;2022-09-09T12:11:30;19.70;99.90
59148;DHT22;44930;52.878;6.168;2022-09-09T12:13:58;19.20;99.90
59148;DHT22;44930;52.878;6.168;2022-09-09T12:21:58;19.00;99.90
59148;DHT22;44930;52.878;6.168;2022-09-09T12:24:37;19.50;99.90
59148;DHT22;44930;52.878;6.168;2022-09-09T12:27:20;19.10;99.90
59148;DHT22;44930;52.878;6.168;2022-09-09T12:29:54;18.60;99.90
59148;DHT22;44930;52.878;6.168;2022-09-09T12:32:24;18.90;99.90
59148;DHT22;44930;52.878;6.168;2022-09-09T12:37:36;19.10;99.90
59148;DHT22;44930;52.878;6.168;2022-09-09T12:40:03;18.90;99.90
59148;DHT22;44930;52.878;6.168;2022-09-09T12:42:30;18.80;99.90
59148;DHT22;44930;52.878;6.168;2022-09-09T12:45:03;18.20;99.90
59148;DHT22;44930;52.878;6.168;2022-09-09T12:47:43;18.00;99.90
59148;DHT22;44930;52.878;6.168;2022-09-09T12:50:26;18.60;99.90
59148;DHT22;44930;52.878;6.168;2022-09-09T12:53:06;19.10;99.90
59148;DHT22;44930;52.878;6.168;2022-09-09T12:55:37;18.90;99.90
59148;DHT22;44930;52.878;6.168;2022-09-09T12:58:04;19.10;99.90
59148;DHT22;44930;52.878;6.168;2022-09-09T13:00:32;19.70;99.90
59148;DHT22;44930;52.878;6.168;2022-09-09T13:03:01;19.20;99.90
59148;DHT22;44930;52.878;6.168;2022-09-09T13:05:38;19.70;99.90
59148;DHT22;44930;52.878;6.168;2022-09-09T13:08:09;19.30;99.90
59148;DHT22;44930;52.878;6.168;2022-09-09T13:11:03;19.10;99.90
59148;DHT22;44930;52.878;6.168;2022-09-09T13:13:36;19.50;99.90
59148;DHT22;44930;52.878;6.168;2022-09-09T13:16:04;19.30;99.90
59148;DHT22;44930;52.878;6.168;2022-09-09T13:18:34;18.90;99.90
59148;DHT22;44930;52.878;6.168;2022-09-09T13:21:01;18.50;99.90
59148;DHT22;44930;52.878;6.168;2022-09-09T13:23:33;19.20;99.90
59148;DHT22;44930;52.878;6.168;2022-09-09T13:28:49;19.00;99.90
59148;DHT22;44930;52.878;6.168;2022-09-09T13:31:32;19.50;99.90
59148;DHT22;44930;52.878;6.168;2022-09-09T13:33:58;19.50;99.90
59148;DHT22;44930;52.878;6.168;2022-09-09T13:36:31;19.00;99.90
59148;DHT22;44930;52.878;6.168;2022-09-09T13:38:59;19.70;99.90
59148;DHT22;44930;52.878;6.168;2022-09-09T13:41:36;19.40;99.90
59148;DHT22;44930;52.878;6.168;2022-09-09T13:44:19;19.20;99.90
59148;DHT22;44930;52.878;6.168;2022-09-09T13:46:45;19.80;99.90
59148;DHT22;44930;52.878;6.168;2022-09-09T13:51:50;20.50;99.90
59148;DHT22;44930;52.878;6.168;2022-09-09T13:54:19;20.80;99.90
59148;DHT22;44930;52.878;6.168;2022-09-09T13:56:45;21.00;99.90
59148;DHT22;44930;52.878;6.168;2022-09-09T13:59:13;20.60;99.90
59148;DHT22;44930;52.878;6.168;2022-09-09T14:01:40;20.40;99.90
59148;DHT22;44930;52.878;6.168;2022-09-09T14:04:06;20.20;99.90
59148;DHT22;44930;52.878;6.168;2022-09-09T14:06:33;19.90;99.90
59148;DHT22;44930;52.878;6.168;2022-09-09T14:09:00;20.10;99.90
59148;DHT22;44930;52.878;6.168;2022-09-09T14:11:26;19.60;99.90
59148;DHT22;44930;52.878;6.168;2022-09-09T14:13:51;19.60;99.90
59148;DHT22;44930;52.878;6.168;2022-09-09T14:16:18;19.10;99.90
59148;DHT22;44930;52.878;6.168;2022-09-09T14:18:44;19.00;99.90
59148;DHT22;44930;52.878;6.168;2022-09-09T14:21:11;19.10;99.90
59148;DHT22;44930;52.878;6.168;2022-09-09T14:23:37;19.20;99.90
59148;DHT22;44930;52.878;6.168;2022-09-09T14:26:07;19.00;99.90
59148;DHT22;44930;52.878;6.168;2022-09-09T14:28:33;18.80;99.90
59148;DHT22;44930;52.878;6.168;2022-09-09T14:31:00;18.90;99.90
59148;DHT22;44930;52.878;6.168;2022-09-09T14:33:26;19.10;99.90
59148;DHT22;44930;52.878;6.168;2022-09-09T14:35:57;19.10;99.90
59148;DHT22;44930;52.878;6.168;2022-09-09T14:38:23;18.60;99.90
59148;DHT22;44930;52.878;6.168;2022-09-09T14:40:49;18.90;99.90
59148;DHT22;44930;52.878;6.168;2022-09-09T14:43:14;18.50;99.90
59148;DHT22;44930;52.878;6.168;2022-09-09T14:45:40;18.60;99.90
59148;DHT22;44930;52.878;6.168;2022-09-09T14:48:06;18.10;99.90
59148;DHT22;44930;52.878;6.168;2022-09-09T14:50:31;18.40;99.90
59148;DHT22;44930;52.878;6.168;2022-09-09T14:52:57;18.50;99.90
59148;DHT22;44930;52.878;6.168;2022-09-09T14:55:22;18.50;99.90
59148;DHT22;44930;52.878;6.168;2022-09-09T14:57:48;18.50;99.90
59148;DHT22;44930;52.878;6.168;2022-09-09T15:00:14;18.30;99.90
59148;DHT22;44930;52.878;6.168;2022-09-09T15:02:40;18.10;99.90
59148;DHT22;44930;52.878;6.168;2022-09-09T15:05:06;19.50;99.90
59148;DHT22;44930;52.878;6.168;2022-09-09T15:07:31;18.30;99.90
59148;DHT22;44930;52.878;6.168;2022-09-09T15:09:57;18.60;99.90
59148;DHT22;44930;52.878;6.168;2022-09-09T15:12:24;18.50;99.90
59148;DHT22;44930;52.878;6.168;2022-09-09T15:14:49;18.20;99.90
59148;DHT22;44930;52.878;6.168;2022-09-09T15:17:16;18.10;99.90
59148;DHT22;44930;52.878;6.168;2022-09-09T15:19:42;18.70;99.90
59148;DHT22;44930;52.878;6.168;2022-09-09T15:22:08;18.40;99.90
59148;DHT22;44930;52.878;6.168;2022-09-09T15:24:34;18.80;99.90
59148;DHT22;44930;52.878;6.168;2022-09-09T15:27:01;18.50;99.90
59148;DHT22;44930;52.878;6.168;2022-09-09T15:29:27;18.60;99.90
59148;DHT22;44930;52.878;6.168;2022-09-09T15:31:56;18.30;99.90
59148;DHT22;44930;52.878;6.168;2022-09-09T15:34:22;18.30;99.90
59148;DHT22;44930;52.878;6.168;2022-09-09T15:36:48;18.60;99.90
59148;DHT22;44930;52.878;6.168;2022-09-09T15:39:15;19.30;99.90
59148;DHT22;44930;52.878;6.168;2022-09-09T15:41:45;18.60;99.90
59148;DHT22;44930;52.878;6.168;2022-09-09T15:44:11;18.20;99.90
59148;DHT22;44930;52.878;6.168;2022-09-09T15:46:43;18.10;99.90
59148;DHT22;44930;52.878;6.168;2022-09-09T15:49:15;18.50;99.90
59148;DHT22;44930;52.878;6.168;2022-09-09T15:51:46;18.10;99.90
59148;DHT22;44930;52.878;6.168;2022-09-09T15:54:14;18.20;99.90
59148;DHT22;44930;52.878;6.168;2022-09-09T15:56:42;17.90;99.90
59148;DHT22;44930;52.878;6.168;2022-09-09T15:59:08;18.00;99.90
59148;DHT22;44930;52.878;6.168;2022-09-09T16:01:34;18.10;99.90
59148;DHT22;44930;52.878;6.168;2022-09-09T16:04:00;18.40;99.90
59148;DHT22;44930;52.878;6.168;2022-09-09T16:06:28;17.90;99.90
59148;DHT22;44930;52.878;6.168;2022-09-09T16:08:55;18.30;99.90
59148;DHT22;44930;52.878;6.168;2022-09-09T16:11:27;18.70;99.90
59148;DHT22;44930;52.878;6.168;2022-09-09T16:13:54;18.50;99.90
59148;DHT22;44930;52.878;6.168;2022-09-09T16:16:22;18.60;99.90
59148;DHT22;44930;52.878;6.168;2022-09-09T16:18:54;18.00;99.90
59148;DHT22;44930;52.878;6.168;2022-09-09T16:23:52;18.90;99.90
59148;DHT22;44930;52.878;6.168;2022-09-09T16:26:21;18.30;99.90
59148;DHT22;44930;52.878;6.168;2022-09-09T16:28:47;18.40;99.90
59148;DHT22;44930;52.878;6.168;2022-09-09T16:31:16;17.90;99.90
59148;DHT22;44930;52.878;6.168;2022-09-09T16:33:42;18.20;99.90
59148;DHT22;44930;52.878;6.168;2022-09-09T16:36:14;18.60;99.90
59148;DHT22;44930;52.878;6.168;2022-09-09T16:38:40;18.20;99.90
59148;DHT22;44930;52.878;6.168;2022-09-09T16:41:06;18.40;99.90
59148;DHT22;44930;52.878;6.168;2022-09-09T16:43:34;18.40;99.90
59148;DHT22;44930;52.878;6.168;2022-09-09T16:46:01;18.40;99.90
59148;DHT22;44930;52.878;6.168;2022-09-09T16:48:33;18.20;99.90
59148;DHT22;44930;52.878;6.168;2022-09-09T16:51:05;18.10;99.90
59148;DHT22;44930;52.878;6.168;2022-09-09T16:53:32;18.30;99.90
59148;DHT22;44930;52.878;6.168;2022-09-09T16:55:58;17.70;99.90
59148;DHT22;44930;52.878;6.168;2022-09-09T16:58:24;18.40;99.90
59148;DHT22;44930;52.878;6.168;2022-09-09T17:00:49;18.30;99.90
59148;DHT22;44930;52.878;6.168;2022-09-09T17:03:16;18.00;99.90
59148;DHT22;44930;52.878;6.168;2022-09-09T17:05:42;18.20;99.90
59148;DHT22;44930;52.878;6.168;2022-09-09T17:08:08;17.90;99.90
59148;DHT22;44930;52.878;6.168;2022-09-09T17:10:34;17.60;99.90
59148;DHT22;44930;52.878;6.168;2022-09-09T17:13:05;18.10;99.90
59148;DHT22;44930;52.878;6.168;2022-09-09T17:15:30;17.60;99.90
59148;DHT22;44930;52.878;6.168;2022-09-09T17:17:56;17.90;99.90
59148;DHT22;44930;52.878;6.168;2022-09-09T17:20:21;18.00;99.90
59148;DHT22;44930;52.878;6.168;2022-09-09T17:22:47;18.00;99.90